Time;durP1;ratioP1;P1;durP2;ratioP2;P2;SDS_P1;SDS_P2;PMS_P1;PMS_P2;Temp;Humidity;BMP_temperature;BMP_pressure;BME280_temperature;BME280_humidity;BME280_pressure;Samples;Min_cycle;Max_cycle;Signal;HPM_P1;HPM_P2
2022/01/04 00:00:45;;;;;;;55.23;27.47;;;;;;;6.01;77.48;94853.16;5059705;28;20174;-81
2022/01/04 00:03:10;;;;;;;50.77;24.67;;;;;;;5.52;77.79;94825.00;5063707;28;20174;-81
2022/01/04 00:05:37;;;;;;;43.30;22.90;;;;;;;5.59;78.69;94841.56;5058631;28;20171;-81
2022/01/04 00:08:07;;;;;;;933.80;504.27;;;;;;;5.24;78.78;94801.31;5052106;28;20199;-81
2022/01/04 00:10:32;;;;;;;725.87;421.23;;;;;;;5.35;78.96;94820.94;5052276;28;20171;-81
2022/01/04 00:15:45;;;;;;;1236.03;720.77;;;;;;;5.32;79.85;94810.84;5052114;28;20166;-81
2022/01/04 00:18:11;;;;;;;1440.47;720.43;;;;;;;5.45;79.20;94831.13;5052122;28;20151;-82
2022/01/04 00:20:37;;;;;;;1475.70;767.57;;;;;;;5.10;78.69;94783.06;5051984;28;20171;-82
2022/01/04 00:23:02;;;;;;;1666.17;812.97;;;;;;;5.45;79.61;94850.19;5051904;28;20183;-81
2022/01/04 00:25:28;;;;;;;1999.90;999.90;;;;;;;5.38;79.66;94838.03;5059297;28;20218;-82
2022/01/04 00:27:53;;;;;;;1889.87;907.53;;;;;;;5.32;79.28;94827.34;5061273;28;20739;-81
2022/01/04 00:30:19;;;;;;;1999.90;999.90;;;;;;;5.17;79.17;94803.03;5061609;28;20619;-81
2022/01/04 00:32:44;;;;;;;1999.90;999.90;;;;;;;5.26;79.13;94827.25;5056255;28;20317;-82
2022/01/04 00:35:10;;;;;;;1999.90;999.90;;;;;;;5.25;79.06;94836.88;5052056;28;20163;-82
2022/01/04 00:37:35;;;;;;;1820.73;865.50;;;;;;;5.12;79.59;94828.00;5051861;28;20669;-82
2022/01/04 00:40:02;;;;;;;1999.90;999.90;;;;;;;4.87;79.72;94801.34;5060819;28;20175;-82
2022/01/04 00:42:28;;;;;;;1803.87;808.97;;;;;;;5.28;79.48;94877.44;5042648;28;20190;-82
2022/01/04 00:44:53;;;;;;;1999.90;999.90;;;;;;;4.99;79.25;94823.44;5052545;28;20167;-81
2022/01/04 00:47:25;;;;;;;1999.90;999.90;;;;;;;5.21;78.99;94869.50;5062471;28;20199;-81
2022/01/04 00:49:51;;;;;;;1999.90;999.90;;;;;;;5.27;79.45;94873.22;5064476;28;20190;-82
2022/01/04 00:52:17;;;;;;;1999.90;999.90;;;;;;;4.88;79.39;94819.44;5062873;28;20182;-81
2022/01/04 00:54:42;;;;;;;1999.90;999.90;;;;;;;5.03;80.45;94858.59;5059599;28;20182;-81
2022/01/04 00:57:08;;;;;;;1999.90;999.90;;;;;;;5.13;81.08;94866.16;5059912;28;20174;-81
2022/01/04 00:59:33;;;;;;;1999.90;999.90;;;;;;;4.93;81.25;94834.53;5062639;28;20227;-81
2022/01/04 01:01:59;;;;;;;1999.90;999.90;;;;;;;4.83;81.24;94816.56;5052753;28;20187;-81
2022/01/04 01:04:25;;;;;;;1999.90;999.90;;;;;;;4.74;80.26;94801.16;5060845;28;20178;-81
2022/01/04 01:06:50;;;;;;;1999.90;999.90;;;;;;;5.06;79.77;94853.03;5068321;28;20179;-81
2022/01/04 01:09:16;;;;;;;1999.90;999.90;;;;;;;4.51;79.82;94764.69;5060287;28;20645;-81
2022/01/04 01:11:41;;;;;;;1999.90;999.90;;;;;;;4.90;79.75;94825.28;5055518;28;20218;-82
2022/01/04 01:14:07;;;;;;;1999.90;999.90;;;;;;;5.04;79.62;94856.78;5055692;28;20592;-82
2022/01/04 01:16:32;;;;;;;1999.90;999.90;;;;;;;4.72;79.85;94800.53;5054637;28;20186;-82
2022/01/04 01:18:58;;;;;;;1999.90;999.90;;;;;;;4.80;80.08;94821.31;5055446;28;20167;-82
2022/01/04 01:21:24;;;;;;;1999.90;999.90;;;;;;;4.55;79.72;94792.03;5054007;28;20946;-82
2022/01/04 01:23:49;;;;;;;1999.90;999.90;;;;;;;4.95;80.42;94845.63;5057149;28;20182;-81
2022/01/04 01:26:15;;;;;;;1999.90;999.90;;;;;;;4.92;80.40;94835.56;5066254;28;20183;-81
2022/01/04 01:28:41;;;;;;;1999.90;999.90;;;;;;;4.77;79.82;94817.25;5065857;28;20271;-82
2022/01/04 01:31:08;;;;;;;1999.90;999.90;;;;;;;4.83;79.95;94840.03;5066010;28;20167;-81
2022/01/04 01:33:34;;;;;;;1999.90;999.90;;;;;;;4.67;79.63;94806.25;5055027;28;20206;-81
2022/01/04 01:36:00;;;;;;;1999.90;999.90;;;;;;;4.69;80.64;94825.13;5053756;28;20187;-81
2022/01/04 01:38:26;;;;;;;1999.90;999.90;;;;;;;4.74;81.93;94838.47;5055035;28;20272;-81
2022/01/04 01:40:52;;;;;;;1999.90;999.90;;;;;;;4.78;81.45;94837.13;5054779;28;20594;-81
2022/01/04 01:43:19;;;;;;;1999.90;999.90;;;;;;;4.80;80.94;94850.00;5054824;28;20624;-83
2022/01/04 01:45:45;;;;;;;1999.90;999.90;;;;;;;4.74;80.60;94859.34;5060526;28;20206;-83
2022/01/04 01:48:11;;;;;;;1999.90;999.90;;;;;;;4.48;80.85;94812.78;5062194;28;20723;-83
2022/01/04 01:50:37;;;;;;;1999.90;999.90;;;;;;;4.48;80.94;94817.97;5064584;28;20167;-83
2022/01/04 01:53:03;;;;;;;1999.90;999.90;;;;;;;4.50;81.37;94826.41;5062085;28;20214;-83
2022/01/04 01:55:29;;;;;;;1999.90;999.90;;;;;;;4.44;81.60;94827.13;5054746;28;20269;-83
2022/01/04 01:57:55;;;;;;;1999.90;999.90;;;;;;;4.20;82.22;94800.44;5054539;28;20759;-83
2022/01/04 02:00:24;;;;;;;1999.90;999.90;;;;;;;4.57;82.09;94847.41;5054790;28;20530;-83
2022/01/04 02:02:49;;;;;;;1999.90;999.90;;;;;;;4.36;82.26;94815.94;5053310;28;20171;-83
2022/01/04 02:05:15;;;;;;;1999.90;999.90;;;;;;;4.18;82.15;94788.38;5054352;28;20206;-83
2022/01/04 02:07:42;;;;;;;1999.90;999.90;;;;;;;4.32;82.13;94814.69;5054271;28;20199;-83
2022/01/04 02:10:08;;;;;;;1999.90;999.90;;;;;;;4.29;81.50;94817.63;5065289;28;20228;-82
2022/01/04 02:12:37;;;;;;;1999.90;999.90;;;;;;;4.21;81.55;94800.25;5064513;28;20561;-82
2022/01/04 02:15:05;;;;;;;1999.90;999.90;;;;;;;4.35;81.93;94835.16;5063914;28;20178;-83
2022/01/04 02:17:30;;;;;;;1999.90;999.90;;;;;;;4.21;81.98;94817.69;5054439;28;20183;-83
2022/01/04 02:19:57;;;;;;;1999.90;999.90;;;;;;;4.28;81.71;94826.44;5052970;28;20167;-83
2022/01/04 02:22:23;;;;;;;1999.90;999.90;;;;;;;4.14;81.27;94807.16;5054090;28;20248;-83
2022/01/04 02:24:49;;;;;;;1999.90;999.90;;;;;;;3.93;81.21;94796.53;5053578;28;20652;-83
2022/01/04 02:27:15;;;;;;;1999.90;999.90;;;;;;;4.11;81.36;94821.31;5059816;28;20198;-83
2022/01/04 02:29:41;;;;;;;1999.90;999.90;;;;;;;4.02;81.57;94809.31;5060986;28;20255;-83
2022/01/04 02:32:08;;;;;;;1999.90;999.90;;;;;;;4.22;81.35;94843.56;5066381;28;20268;-83
2022/01/04 02:34:33;;;;;;;1999.90;999.90;;;;;;;4.17;80.96;94835.44;5038234;28;20194;-83
2022/01/04 02:36:59;;;;;;;1999.90;999.90;;;;;;;3.93;82.16;94814.75;5062490;28;20563;-82
2022/01/04 02:39:34;;;;;;;1999.90;999.90;;;;;;;4.11;81.73;94838.75;5058243;28;20209;-82
2022/01/04 02:42:00;;;;;;;1999.90;999.90;;;;;;;3.87;81.35;94813.66;5063214;28;20204;-82
2022/01/04 02:44:26;;;;;;;1999.90;999.90;;;;;;;3.76;81.57;94785.38;5055560;28;20613;-82
2022/01/04 02:46:51;;;;;;;1999.90;999.90;;;;;;;3.83;81.70;94796.72;5063303;28;20170;-82
2022/01/04 02:49:17;;;;;;;1999.90;999.90;;;;;;;4.05;81.68;94836.81;5070086;28;20193;-82
2022/01/04 02:51:42;;;;;;;1999.90;999.90;;;;;;;3.74;81.52;94793.34;5064544;28;20237;-82
2022/01/04 02:54:08;;;;;;;1999.90;999.90;;;;;;;3.93;81.42;94815.56;5061472;28;20269;-82
2022/01/04 02:56:33;;;;;;;1999.90;999.90;;;;;;;3.94;81.33;94819.78;5057317;28;20170;-83
2022/01/04 02:59:03;;;;;;;1999.90;999.90;;;;;;;3.61;81.09;94771.47;5063145;28;20640;-82
2022/01/04 03:01:32;;;;;;;1999.90;999.90;;;;;;;3.93;81.11;94818.16;5063017;28;20228;-82
2022/01/04 03:03:58;;;;;;;1999.90;999.90;;;;;;;3.91;81.13;94816.69;5073473;28;20182;-83
2022/01/04 03:06:24;;;;;;;1999.90;999.90;;;;;;;3.62;81.75;94773.09;5069529;28;21004;-82
2022/01/04 03:08:49;;;;;;;1999.90;999.90;;;;;;;3.62;82.14;94775.72;5062742;28;20277;-83
2022/01/04 03:11:15;;;;;;;1999.90;999.90;;;;;;;3.71;82.29;94792.91;5057159;28;20203;-83
2022/01/04 03:13:40;;;;;;;1999.90;999.90;;;;;;;3.67;82.16;94799.41;5067339;28;20559;-83
2022/01/04 03:16:05;;;;;;;1999.90;999.90;;;;;;;3.51;82.14;94770.88;5061861;28;20177;-83
2022/01/04 03:18:31;;;;;;;1999.90;999.90;;;;;;;3.77;82.06;94820.84;5056493;28;20598;-83
2022/01/04 03:20:57;;;;;;;1999.90;999.90;;;;;;;3.52;82.10;94775.09;5052936;28;20571;-83
2022/01/04 03:23:22;;;;;;;1999.90;999.90;;;;;;;3.56;81.87;94778.97;5052863;28;20175;-83
2022/01/04 03:25:48;;;;;;;1999.90;999.90;;;;;;;3.35;81.78;94750.94;5051677;28;20233;-83
2022/01/04 03:28:16;;;;;;;1999.90;999.90;;;;;;;3.75;82.05;94820.19;5050571;28;20712;-83
2022/01/04 03:30:42;;;;;;;1999.90;999.90;;;;;;;3.45;82.52;94764.56;5051596;28;20171;-83
2022/01/04 03:33:09;;;;;;;1999.90;999.90;;;;;;;3.76;82.67;94827.84;5052853;28;20167;-83
2022/01/04 03:35:34;;;;;;;1999.90;999.90;;;;;;;3.65;83.41;94798.78;5052777;28;20625;-83
2022/01/04 03:38:00;;;;;;;1999.90;999.90;;;;;;;3.50;83.37;94777.06;5060128;28;20180;-83
2022/01/04 03:40:25;;;;;;;1999.90;999.90;;;;;;;3.61;82.83;94797.50;5061791;28;20166;-83
2022/01/04 03:42:50;;;;;;;1999.90;999.90;;;;;;;3.70;82.42;94819.91;5061106;28;20213;-83
2022/01/04 03:45:16;;;;;;;1999.90;999.90;;;;;;;3.67;82.49;94822.84;5060044;28;20671;-83
2022/01/04 03:47:42;;;;;;;1999.90;999.90;;;;;;;3.55;83.37;94813.78;5060071;28;20198;-83
2022/01/04 03:50:07;;;;;;;1999.90;999.90;;;;;;;3.31;83.16;94781.69;5061236;28;20544;-83
2022/01/04 03:52:36;;;;;;;1999.90;999.90;;;;;;;3.36;83.83;94812.41;5051159;28;20164;-83
2022/01/04 03:55:05;;;;;;;1999.90;999.90;;;;;;;3.52;84.13;94834.94;5051096;28;20183;-83
2022/01/04 03:57:30;;;;;;;1999.90;999.90;;;;;;;3.45;83.98;94834.00;5052283;28;21025;-82
2022/01/04 03:59:57;;;;;;;1999.90;999.90;;;;;;;3.36;83.32;94809.81;5051068;28;20182;-83
2022/01/04 04:02:22;;;;;;;1999.90;999.90;;;;;;;3.40;83.57;94819.69;5052306;28;20159;-83
2022/01/04 04:04:48;;;;;;;1999.90;999.90;;;;;;;3.19;83.34;94775.22;5052528;28;20174;-83
2022/01/04 04:07:13;;;;;;;1999.90;999.90;;;;;;;3.04;83.49;94761.28;5050961;28;20209;-83
2022/01/04 04:09:40;;;;;;;1999.90;999.90;;;;;;;3.59;83.04;94833.28;5052162;28;20175;-83
2022/01/04 04:12:05;;;;;;;1999.90;999.90;;;;;;;3.17;82.75;94781.56;5052440;28;20156;-83
2022/01/04 04:14:31;;;;;;;1999.90;999.90;;;;;;;3.32;82.69;94809.31;5052126;28;20236;-83
2022/01/04 04:16:56;;;;;;;1999.90;999.90;;;;;;;3.24;83.11;94798.13;5052106;28;20246;-83
2022/01/04 04:19:22;;;;;;;1999.90;999.90;;;;;;;3.26;82.74;94810.00;5056946;28;20183;-83
2022/01/04 04:21:48;;;;;;;1999.90;999.90;;;;;;;3.28;82.71;94810.66;5064976;28;20190;-83
2022/01/04 04:24:14;;;;;;;1999.90;999.90;;;;;;;3.07;82.92;94786.16;5058676;28;20194;-83
2022/01/04 04:26:39;;;;;;;1999.90;999.90;;;;;;;3.03;83.76;94788.25;5058273;28;20626;-83
2022/01/04 04:29:06;;;;;;;1999.90;999.90;;;;;;;3.43;83.35;94836.75;5058659;28;20265;-82
2022/01/04 04:31:32;;;;;;;1999.90;999.90;;;;;;;3.41;83.30;94825.72;5063491;28;20583;-82
2022/01/04 04:33:57;;;;;;;1999.90;999.90;;;;;;;3.13;83.18;94788.88;5062698;28;20186;-82
2022/01/04 04:36:23;;;;;;;1999.90;999.90;;;;;;;3.44;83.23;94841.00;5057828;28;20183;-82
2022/01/04 04:38:48;;;;;;;1999.90;999.90;;;;;;;3.44;83.20;94859.22;5060589;28;20596;-82
2022/01/04 04:41:13;;;;;;;1999.90;999.90;;;;;;;3.15;82.27;94815.53;5058581;28;20178;-82
2022/01/04 04:43:39;;;;;;;1999.90;999.90;;;;;;;2.98;82.39;94808.75;5056697;28;20174;-82
2022/01/04 04:46:04;;;;;;;1999.90;999.90;;;;;;;3.13;82.88;94834.88;5060897;28;20194;-83
2022/01/04 04:48:30;;;;;;;1999.90;999.90;;;;;;;3.08;83.14;94830.19;5067455;28;20198;-83
2022/01/04 04:50:55;;;;;;;1999.90;999.90;;;;;;;3.34;82.65;94867.19;5064236;28;20550;-82
2022/01/04 04:53:21;;;;;;;1999.90;999.90;;;;;;;2.89;82.50;94791.53;5051619;28;20171;-82
2022/01/04 04:55:46;;;;;;;1999.90;999.90;;;;;;;3.12;83.14;94828.06;5051933;28;20171;-80
2022/01/04 04:58:12;;;;;;;1999.90;999.90;;;;;;;2.85;82.88;94795.47;5059308;28;20703;-86
2022/01/04 05:00:38;;;;;;;1999.90;999.90;;;;;;;2.85;82.78;94824.06;5053086;28;20627;-86
2022/01/04 05:03:03;;;;;;;1999.90;999.90;;;;;;;3.13;82.99;94871.28;5058939;28;20186;-85
2022/01/04 05:05:29;;;;;;;1999.90;999.90;;;;;;;2.80;83.08;94816.72;5058569;28;20186;-85
2022/01/04 05:07:54;;;;;;;1999.90;999.90;;;;;;;3.02;82.81;94841.25;5060979;28;20568;-85
2022/01/04 05:10:20;;;;;;;1999.90;999.90;;;;;;;2.69;82.77;94795.47;5068357;28;20236;-85
2022/01/04 05:12:45;;;;;;;1999.90;999.90;;;;;;;2.99;83.04;94850.19;5060714;28;20560;-85
2022/01/04 05:15:11;;;;;;;1999.90;999.90;;;;;;;2.58;82.84;94786.25;5063039;28;20639;-85
2022/01/04 05:17:36;;;;;;;1999.90;999.90;;;;;;;2.78;83.17;94816.09;5062173;28;20174;-85
2022/01/04 05:20:03;;;;;;;1999.90;999.90;;;;;;;2.58;83.39;94789.66;5065489;28;20174;-85
2022/01/04 05:22:28;;;;;;;1999.90;999.90;;;;;;;2.92;83.31;94849.22;5071439;28;20162;-85
2022/01/04 05:24:54;;;;;;;1999.90;999.90;;;;;;;2.48;84.16;94772.59;5071150;28;20174;-85
2022/01/04 05:27:19;;;;;;;1999.90;999.90;;;;;;;2.62;83.80;94780.53;5069351;28;20276;-85
2022/01/04 05:29:47;;;;;;;1999.90;999.90;;;;;;;2.75;84.52;94800.03;5050036;28;20227;-83
2022/01/04 05:32:13;;;;;;;1999.90;999.90;;;;;;;2.79;85.84;94825.50;5051228;28;20254;-83
2022/01/04 05:34:38;;;;;;;1999.90;999.90;;;;;;;2.98;85.47;94855.53;5051325;28;20267;-82
2022/01/04 05:37:04;;;;;;;1999.90;999.90;;;;;;;2.82;84.65;94826.97;5049806;28;20182;-84
2022/01/04 05:39:29;;;;;;;1999.90;999.90;;;;;;;3.00;84.29;94858.81;5051315;28;20174;-82
2022/01/04 05:41:55;;;;;;;1999.90;999.90;;;;;;;3.01;85.34;94857.81;5049934;28;20217;-83
2022/01/04 05:44:21;;;;;;;1999.90;999.90;;;;;;;2.69;84.58;94801.47;5051164;28;20164;-82
2022/01/04 05:46:46;;;;;;;1999.90;999.90;;;;;;;3.10;84.36;94854.25;5051057;28;20174;-81
2022/01/04 05:49:12;;;;;;;1999.90;999.90;;;;;;;2.92;84.01;94818.03;5051204;28;20660;-81
2022/01/04 05:51:37;;;;;;;1999.90;999.90;;;;;;;3.03;83.75;94827.25;5052528;28;20186;-81
2022/01/04 05:54:04;;;;;;;1999.90;999.90;;;;;;;2.74;83.60;94782.81;5055125;28;20164;-81
2022/01/04 05:56:30;;;;;;;1999.90;999.90;;;;;;;3.01;84.13;94831.84;5054540;28;20167;-81
2022/01/04 05:58:55;;;;;;;1999.90;999.90;;;;;;;2.98;83.94;94819.16;5054708;28;20212;-81
2022/01/04 06:01:21;;;;;;;1999.90;999.90;;;;;;;3.16;83.84;94844.97;5054711;28;20182;-81
2022/01/04 06:03:47;;;;;;;1999.90;999.90;;;;;;;3.01;83.46;94816.22;5054726;28;20152;-81
2022/01/04 06:06:13;;;;;;;1999.90;999.90;;;;;;;2.95;83.54;94815.09;5054276;28;20163;-81
2022/01/04 06:08:38;;;;;;;1999.90;999.90;;;;;;;3.05;83.74;94809.72;5054160;28;20202;-81
2022/01/04 06:11:06;;;;;;;1999.90;999.90;;;;;;;3.20;83.64;94847.03;5054597;28;20159;-81
2022/01/04 06:16:16;;;;;;;1999.90;999.90;;;;;;;3.14;83.00;94831.31;5054794;28;20229;-81
2022/01/04 06:18:42;;;;;;;1999.90;999.90;;;;;;;3.19;83.79;94835.03;5054555;28;20159;-81
2022/01/04 06:21:10;;;;;;;1999.90;999.90;;;;;;;3.38;83.77;94855.47;5054230;28;20163;-81
2022/01/04 06:23:36;;;;;;;1999.90;999.90;;;;;;;3.38;83.48;94842.44;5052846;28;20754;-81
2022/01/04 06:26:02;;;;;;;1999.90;999.90;;;;;;;3.29;83.24;94804.44;5054210;28;20257;-81
2022/01/04 06:28:27;;;;;;;1999.90;999.90;;;;;;;3.54;82.47;94830.41;5054083;28;20254;-81
2022/01/04 06:30:53;;;;;;;1999.90;999.90;;;;;;;3.62;83.04;94835.56;5054043;28;20606;-81
2022/01/04 06:33:23;;;;;;;1999.90;999.90;;;;;;;3.48;83.05;94805.03;5052838;28;20262;-81
2022/01/04 06:35:49;;;;;;;1999.90;999.90;;;;;;;3.60;82.57;94808.88;5053940;28;20211;-81
2022/01/04 06:38:16;;;;;;;1999.90;999.90;;;;;;;3.83;81.76;94827.97;5052575;28;20175;-81
2022/01/04 06:40:41;;;;;;;1999.90;999.90;;;;;;;3.77;82.06;94811.25;5053907;28;20163;-81
2022/01/04 06:43:07;;;;;;;1999.90;999.90;;;;;;;3.75;82.69;94802.78;5053785;28;20649;-84
2022/01/04 06:45:32;;;;;;;1999.90;999.90;;;;;;;3.94;83.20;94813.78;5052124;28;20194;-82
2022/01/04 06:47:58;;;;;;;1999.90;999.90;;;;;;;3.84;83.17;94784.53;5053546;28;20195;-82
2022/01/04 06:50:24;;;;;;;1999.90;999.90;;;;;;;4.06;82.57;94804.59;5053916;28;20158;-82
2022/01/04 06:52:49;;;;;;;1999.90;999.90;;;;;;;4.18;82.46;94801.41;5059181;28;20628;-82
2022/01/04 06:55:15;;;;;;;1999.90;999.90;;;;;;;4.40;82.20;94836.28;5073540;28;20178;-82
2022/01/04 06:57:41;;;;;;;1999.90;999.90;;;;;;;4.10;81.99;94772.00;5073516;28;20154;-82
2022/01/04 07:00:07;;;;;;;1999.90;999.90;;;;;;;4.45;82.14;94835.75;5073404;28;20170;-83
2022/01/04 07:02:32;;;;;;;1999.90;999.90;;;;;;;4.60;81.90;94841.81;5073259;28;20652;-83
2022/01/04 07:04:58;;;;;;;1999.90;999.90;;;;;;;4.50;81.65;94800.34;5070603;28;20246;-82
2022/01/04 07:07:24;;;;;;;650.10;183.40;;;;;;;4.63;80.59;94791.97;5052956;28;20191;-83
2022/01/04 07:09:49;;;;;;;1294.00;708.57;;;;;;;5.23;79.52;94848.47;5051715;28;20179;-83
2022/01/04 07:12:15;;;;;;;1140.80;697.17;;;;;;;5.45;78.89;94841.56;5052999;28;20656;-83
2022/01/04 07:14:40;;;;;;;1475.43;543.57;;;;;;;5.71;77.08;94838.50;5051829;28;20190;-83
2022/01/04 07:17:06;;;;;;;994.83;265.23;;;;;;;6.03;75.47;94822.44;5051690;28;20174;-83
2022/01/04 07:19:31;;;;;;;1999.90;999.90;;;;;;;6.36;73.76;94823.63;5051665;28;20181;-82
2022/01/04 07:21:57;;;;;;;1999.90;999.90;;;;;;;6.70;72.51;94820.31;5052672;28;20216;-83
2022/01/04 07:24:26;;;;;;;1999.90;999.90;;;;;;;7.08;71.15;94826.09;5052805;28;20171;-83
2022/01/04 07:26:51;;;;;;;1999.90;999.90;;;;;;;7.52;69.83;94830.22;5052551;28;20604;-84
2022/01/04 07:29:17;;;;;;;1999.90;999.90;;;;;;;7.78;67.75;94790.25;5050977;28;20230;-83
2022/01/04 07:31:42;;;;;;;1999.90;637.67;;;;;;;8.67;66.15;94853.88;5052792;28;20170;-83
2022/01/04 07:34:08;;;;;;;1559.37;759.20;;;;;;;9.09;64.54;94857.97;5051469;28;20175;-82
2022/01/04 07:36:33;;;;;;;806.83;659.93;;;;;;;9.46;63.20;94844.22;5051755;28;20181;-82
2022/01/04 07:38:59;;;;;;;43.03;24.47;;;;;;;9.82;61.64;94854.28;5052208;28;20229;-82
2022/01/04 07:41:24;;;;;;;51.53;24.30;;;;;;;10.01;60.77;94834.19;5052288;28;20170;-81
2022/01/04 07:43:50;;;;;;;43.63;23.57;;;;;;;10.65;58.99;94838.56;5052499;28;20240;-82
2022/01/04 07:46:16;;;;;;;42.00;23.33;;;;;;;11.02;57.22;94846.66;5052446;28;20160;-82
2022/01/04 07:48:41;;;;;;;45.37;22.90;;;;;;;11.26;56.63;94845.84;5052331;28;20199;-82
2022/01/04 07:51:07;;;;;;;41.93;22.50;;;;;;;11.11;55.50;94822.47;5052737;28;20603;-82
2022/01/04 07:53:32;;;;;;;51.50;25.17;;;;;;;10.92;56.06;94808.44;5052503;28;20163;-82
2022/01/04 07:55:58;;;;;;;43.77;23.07;;;;;;;10.99;56.11;94837.34;5052070;28;20277;-81
2022/01/04 07:58:25;;;;;;;42.70;24.10;;;;;;;10.88;55.85;94819.63;5052504;28;20162;-80
2022/01/04 08:00:51;;;;;;;44.60;23.67;;;;;;;10.91;56.51;94856.84;5051876;28;21413;-82
2022/01/04 08:03:16;;;;;;;57.77;26.03;;;;;;;11.02;57.17;94851.94;5052185;28;20181;-82
2022/01/04 08:05:42;;;;;;;50.93;24.63;;;;;;;11.12;56.13;94824.09;5050777;28;20209;-82
2022/01/04 08:08:08;;;;;;;55.37;25.80;;;;;;;11.45;55.71;94815.09;5052122;28;20199;-83
2022/01/04 08:10:34;;;;;;;45.60;23.63;;;;;;;11.64;54.95;94840.47;5052197;28;20229;-83
2022/01/04 08:13:00;;;;;;;41.07;23.10;;;;;;;11.29;54.25;94801.44;5051970;28;20175;-83
2022/01/04 08:15:29;;;;;;;44.13;24.07;;;;;;;11.22;57.73;94807.81;5051959;28;20162;-82
2022/01/04 08:17:55;;;;;;;44.43;25.57;;;;;;;10.55;56.47;94778.50;5050637;28;20171;-82
2022/01/04 08:20:20;;;;;;;50.53;28.20;;;;;;;10.11;58.38;94781.16;5061658;28;20178;-82
2022/01/04 08:22:45;;;;;;;60.70;32.20;;;;;;;9.76;60.82;94809.59;5057446;28;20191;-82
2022/01/04 08:25:11;;;;;;;62.90;31.97;;;;;;;9.29;62.08;94794.94;5052187;28;20175;-82
2022/01/04 08:27:37;;;;;;;259.70;129.73;;;;;;;9.18;65.02;94806.03;5068826;28;20198;-82
2022/01/04 08:30:05;;;;;;;113.87;54.87;;;;;;;9.13;65.09;94801.41;5071777;28;20226;-82
2022/01/04 08:32:30;;;;;;;177.83;91.93;;;;;;;9.17;65.65;94828.09;5071888;28;20181;-84
2022/01/04 08:34:56;;;;;;;72.47;39.87;;;;;;;9.00;65.32;94817.97;5070725;28;20554;-82
2022/01/04 08:37:21;;;;;;;50.07;28.63;;;;;;;8.45;63.91;94769.28;5071848;28;20162;-82
2022/01/04 08:39:47;;;;;;;38.30;21.10;;;;;;;8.42;64.36;94792.47;5070601;28;20196;-81
2022/01/04 08:42:12;;;;;;;33.07;17.93;;;;;;;8.20;65.33;94802.28;5070554;28;20230;-82
2022/01/04 08:44:39;;;;;;;35.53;19.73;;;;;;;8.13;66.45;94815.34;5070670;28;20215;-82
2022/01/04 08:47:09;;;;;;;35.80;19.80;;;;;;;8.04;67.45;94815.75;5072595;28;21103;-81
2022/01/04 08:49:36;;;;;;;41.03;21.17;;;;;;;7.81;68.31;94789.84;5072019;28;20625;-83
2022/01/04 08:52:03;;;;;;;30.63;16.30;;;;;;;8.02;68.31;94812.50;5071788;28;20570;-83
2022/01/04 08:54:29;;;;;;;29.20;15.47;;;;;;;8.13;68.33;94822.44;5072056;28;20170;-83
2022/01/04 08:56:54;;;;;;;25.13;15.33;;;;;;;8.01;67.87;94805.66;5071696;28;20170;-83
2022/01/04 08:59:21;;;;;;;33.60;15.57;;;;;;;8.08;68.12;94811.72;5071711;28;20162;-84
2022/01/04 09:01:46;;;;;;;28.93;15.37;;;;;;;8.01;68.01;94797.78;5071012;28;20174;-84
2022/01/04 09:04:11;;;;;;;26.87;14.80;;;;;;;7.90;68.54;94765.88;5070376;28;20213;-83
2022/01/04 09:06:37;;;;;;;25.27;14.43;;;;;;;8.15;68.42;94807.28;5070445;28;20691;-83
2022/01/04 09:09:04;;;;;;;25.00;13.10;;;;;;;7.81;68.34;94748.72;5069383;28;20243;-83
2022/01/04 09:11:29;;;;;;;26.17;13.97;;;;;;;8.09;68.08;94784.50;5062634;28;20174;-84
2022/01/04 09:14:06;;;;;;;24.07;13.30;;;;;;;8.00;68.07;94770.75;5067814;28;20653;-83
2022/01/04 09:19:15;;;;;;;21.43;13.00;;;;;;;8.20;68.94;94763.78;5053183;28;20660;-84
2022/01/04 09:21:41;;;;;;;27.03;15.00;;;;;;;8.69;69.27;94789.69;5066370;28;20178;-82
2022/01/04 09:24:06;;;;;;;25.97;14.00;;;;;;;8.94;68.99;94754.97;5061788;28;20629;-85
2022/01/04 09:26:32;;;;;;;24.27;13.90;;;;;;;9.15;67.99;94740.81;5061843;28;20182;-82
2022/01/04 09:28:57;;;;;;;30.37;17.93;;;;;;;9.77;67.02;94761.28;5064240;28;20774;-83
2022/01/04 09:31:25;;;;;;;26.77;13.80;;;;;;;9.72;63.38;94708.50;5064508;28;20243;-85
2022/01/04 09:33:56;;;;;;;25.63;14.37;;;;;;;9.94;63.48;94730.88;5066057;28;20182;-84
2022/01/04 09:36:21;;;;;;;21.43;12.83;;;;;;;9.90;61.82;94732.28;5056545;28;20599;-84
2022/01/04 09:38:47;;;;;;;28.13;13.13;;;;;;;9.88;62.54;94704.59;5073749;28;20190;-84
2022/01/04 09:41:12;;;;;;;20.97;12.60;;;;;;;10.37;62.00;94746.06;5074902;28;20170;-84
2022/01/04 09:43:38;;;;;;;20.53;10.33;;;;;;;10.11;61.35;94739.88;5075280;28;20620;-85
2022/01/04 09:46:04;;;;;;;23.70;10.60;;;;;;;9.91;62.56;94705.00;5066315;28;20179;-81
2022/01/04 09:48:29;;;;;;;19.63;11.07;;;;;;;10.18;62.11;94734.63;5065854;28;20255;-81
2022/01/04 09:50:59;;;;;;;21.97;12.43;;;;;;;10.17;61.38;94704.03;5057559;28;20225;-81
2022/01/04 09:53:25;;;;;;;25.97;13.83;;;;;;;10.36;61.16;94723.38;5063277;28;20175;-82
2022/01/04 09:55:54;;;;;;;27.90;14.83;;;;;;;10.40;61.37;94724.56;5065872;28;20197;-82
2022/01/04 09:58:21;;;;;;;26.80;14.63;;;;;;;10.18;62.25;94688.06;5064437;28;20254;-82
2022/01/04 10:00:48;;;;;;;23.10;14.43;;;;;;;10.41;61.81;94708.56;5055691;28;20183;-82
2022/01/04 10:03:17;;;;;;;31.40;14.57;;;;;;;10.36;61.15;94700.50;5051469;28;20179;-81
2022/01/04 10:05:43;;;;;;;24.30;13.43;;;;;;;10.27;61.36;94686.00;5057477;28;20182;-82
2022/01/04 10:08:10;;;;;;;19.57;11.93;;;;;;;10.15;61.00;94661.34;5056570;28;20222;-82
2022/01/04 10:10:38;;;;;;;23.57;12.10;;;;;;;10.35;62.42;94669.94;5050190;28;20218;-82
2022/01/04 10:13:09;;;;;;;25.77;12.17;;;;;;;10.52;61.78;94672.84;5054031;28;20670;-82
2022/01/04 10:15:42;;;;;;;22.20;12.63;;;;;;;10.51;61.49;94671.25;5069348;28;20185;-82
2022/01/04 10:18:14;;;;;;;23.40;12.87;;;;;;;10.46;61.27;94674.53;5070974;28;20182;-82
2022/01/04 10:20:40;;;;;;;19.83;12.73;;;;;;;10.49;60.14;94665.38;5070742;28;20178;-82
2022/01/04 10:23:12;;;;;;;22.53;13.07;;;;;;;10.50;60.98;94662.53;5071499;28;20221;-82
2022/01/04 10:25:38;;;;;;;32.40;12.90;;;;;;;10.40;61.81;94641.16;5062420;28;20640;-82
2022/01/04 10:28:05;;;;;;;22.13;12.83;;;;;;;10.51;61.63;94631.78;5051740;28;20223;-82
2022/01/04 10:30:35;;;;;;;24.33;12.33;;;;;;;10.45;60.33;94616.84;5052330;28;20179;-82
2022/01/04 10:33:19;;;;;;;18.53;10.60;;;;;;;10.35;60.55;94616.53;5052113;28;20721;-82
2022/01/04 10:35:50;;;;;;;19.00;10.77;;;;;;;10.34;60.74;94615.72;5052186;28;20603;-82
2022/01/04 10:38:32;;;;;;;22.00;12.40;;;;;;;10.42;60.91;94610.19;5050331;28;20171;-82
2022/01/04 10:41:04;;;;;;;25.03;12.90;;;;;;;10.53;60.65;94635.00;5052012;28;20266;-81
2022/01/04 10:43:32;;;;;;;24.47;12.50;;;;;;;10.58;60.08;94640.41;5050782;28;20572;-82
2022/01/04 10:46:00;;;;;;;21.60;11.00;;;;;;;10.52;60.69;94636.81;5051747;28;20194;-82
2022/01/04 10:48:32;;;;;;;22.27;12.23;;;;;;;10.46;59.93;94629.78;5051832;28;20205;-82
2022/01/04 10:51:05;;;;;;;23.27;11.17;;;;;;;10.41;59.66;94629.63;5051800;28;20187;-82
2022/01/04 10:53:37;;;;;;;22.47;10.97;;;;;;;10.35;59.63;94625.22;5051759;28;20171;-82
2022/01/04 10:56:05;;;;;;;18.70;10.40;;;;;;;10.12;60.02;94601.28;5051747;28;20261;-82
2022/01/04 10:58:35;;;;;;;21.27;10.33;;;;;;;10.11;61.20;94618.91;5051529;28;20179;-82
2022/01/04 11:01:11;;;;;;;18.77;11.13;;;;;;;9.92;61.28;94585.66;5050443;28;20218;-82
2022/01/04 11:03:46;;;;;;;26.87;13.13;;;;;;;10.06;61.17;94608.22;5063407;28;20178;-82
2022/01/04 11:06:23;;;;;;;27.57;12.07;;;;;;;10.11;61.60;94615.47;5071566;28;20644;-82
2022/01/04 11:08:48;;;;;;;22.37;11.93;;;;;;;10.06;61.79;94620.53;5071188;28;20229;-82
2022/01/04 11:11:14;;;;;;;30.47;12.07;;;;;;;10.11;61.91;94610.22;5070197;28;20240;-82